createdAt,value
2018-01-03T00:00:53.446Z,23.87
2018-01-03T00:03:19.236Z,20.70
2018-01-03T00:05:44.973Z,21.23
2018-01-03T00:08:10.732Z,20.97
2018-01-03T00:10:36.486Z,24.33
2018-01-03T00:13:02.482Z,19.50
2018-01-03T00:15:28.448Z,21.10
2018-01-03T00:17:54.224Z,25.80
2018-01-03T00:20:19.994Z,24.87
2018-01-03T00:22:45.762Z,17.23
2018-01-03T00:25:11.515Z,20.83
2018-01-03T00:27:37.290Z,22.70
2018-01-03T00:30:03.055Z,21.53
2018-01-03T00:32:28.811Z,22.43
2018-01-03T00:34:54.584Z,21.77
2018-01-03T00:37:20.326Z,20.30
2018-01-03T00:39:46.166Z,23.10
2018-01-03T00:42:11.984Z,20.43
2018-01-03T00:44:37.743Z,20.03
2018-01-03T00:47:03.506Z,21.23
2018-01-03T00:49:29.313Z,19.37
2018-01-03T00:51:55.063Z,18.70
2018-01-03T00:54:20.871Z,19.07
2018-01-03T00:56:46.705Z,20.70
2018-01-03T00:59:12.450Z,21.60
2018-01-03T01:01:38.233Z,18.80
2018-01-03T01:04:03.991Z,15.10
2018-01-03T01:06:29.910Z,20.40
2018-01-03T01:08:55.682Z,17.40
2018-01-03T01:11:21.511Z,11.47
2018-01-03T01:13:47.266Z,14.77
2018-01-03T01:16:13.061Z,17.17
2018-01-03T01:18:38.890Z,14.00
2018-01-03T01:21:04.630Z,12.80
2018-01-03T01:23:30.375Z,12.13
2018-01-03T01:25:56.167Z,13.73
2018-01-03T01:28:21.902Z,15.40
2018-01-03T01:30:47.704Z,9.67
2018-01-03T01:33:13.447Z,13.30
2018-01-03T01:35:39.240Z,11.47
2018-01-03T01:38:04.983Z,12.67
2018-01-03T01:40:30.779Z,11.10
2018-01-03T01:42:56.527Z,9.13
2018-01-03T01:45:22.283Z,11.53
2018-01-03T01:47:48.034Z,9.30
2018-01-03T01:50:13.794Z,10.00
2018-01-03T01:52:39.551Z,9.87
2018-01-03T01:55:05.342Z,8.73
2018-01-03T01:57:31.103Z,9.43
2018-01-03T01:59:56.901Z,11.57
2018-01-03T02:02:22.654Z,9.30
2018-01-03T02:04:48.429Z,7.87
2018-01-03T02:07:14.198Z,8.90
2018-01-03T02:09:39.949Z,9.47
2018-01-03T02:12:05.730Z,7.83
2018-01-03T02:14:31.504Z,9.47
2018-01-03T02:16:57.288Z,6.63
2018-01-03T02:19:23.050Z,7.83
2018-01-03T02:21:48.816Z,5.57
2018-01-03T02:24:14.636Z,6.37
2018-01-03T02:26:40.391Z,6.57
2018-01-03T02:29:06.205Z,9.03
2018-01-03T02:31:32.043Z,6.10
2018-01-03T02:33:57.789Z,7.80
2018-01-03T02:36:23.576Z,9.50
2018-01-03T02:38:49.335Z,8.13
2018-01-03T02:41:15.114Z,7.03
2018-01-03T02:43:40.891Z,7.17
2018-01-03T02:46:06.644Z,7.97
2018-01-03T02:48:32.461Z,7.17
2018-01-03T02:50:58.243Z,7.77
2018-01-03T02:53:24.741Z,7.13
2018-01-03T02:55:50.498Z,8.75
2018-01-03T02:58:16.352Z,10.27
2018-01-03T03:00:42.168Z,7.63
2018-01-03T03:03:07.951Z,7.60
2018-01-03T03:05:33.746Z,7.77
2018-01-03T03:07:59.542Z,7.07
2018-01-03T03:10:25.302Z,8.57
2018-01-03T03:12:51.102Z,9.00
2018-01-03T03:15:16.837Z,7.97
2018-01-03T03:17:42.603Z,6.93
2018-01-03T03:20:08.355Z,8.73
2018-01-03T03:22:34.115Z,9.13
2018-01-03T03:24:59.862Z,5.77
2018-01-03T03:27:25.630Z,12.80
2018-01-03T03:29:51.390Z,8.70
2018-01-03T03:32:17.137Z,9.83
2018-01-03T03:34:42.897Z,6.13
2018-01-03T03:37:08.661Z,6.70
2018-01-03T03:39:34.411Z,9.73
2018-01-03T03:42:00.166Z,10.17
2018-01-03T03:44:25.947Z,10.03
2018-01-03T03:46:51.703Z,8.33
2018-01-03T03:49:17.510Z,6.67
2018-01-03T03:51:43.314Z,7.33
2018-01-03T03:54:09.067Z,7.93
2018-01-03T03:56:34.838Z,6.77
2018-01-03T03:59:00.603Z,8.57
2018-01-03T04:01:26.368Z,5.33
2018-01-03T04:03:52.142Z,7.17
2018-01-03T04:06:17.911Z,6.07
2018-01-03T04:08:43.674Z,6.20
2018-01-03T04:11:09.442Z,5.27
2018-01-03T04:13:35.227Z,8.13
2018-01-03T04:16:00.995Z,10.07
2018-01-03T04:18:26.766Z,6.10
2018-01-03T04:20:52.519Z,6.13
2018-01-03T04:23:18.295Z,9.30
2018-01-03T04:25:44.041Z,8.17
2018-01-03T04:28:09.815Z,7.50
2018-01-03T04:30:35.589Z,5.13
2018-01-03T04:33:01.346Z,7.67
2018-01-03T04:35:27.103Z,5.63
2018-01-03T04:37:52.859Z,4.73
2018-01-03T04:40:18.618Z,9.50
2018-01-03T04:42:44.367Z,8.50
2018-01-03T04:45:10.129Z,10.70
2018-01-03T04:47:35.873Z,6.73
2018-01-03T04:50:01.634Z,6.77
2018-01-03T04:52:27.399Z,5.43
2018-01-03T04:54:53.162Z,4.97
2018-01-03T04:57:18.906Z,7.70
2018-01-03T04:59:44.658Z,6.87
2018-01-03T05:02:10.414Z,6.03
2018-01-03T05:04:36.174Z,5.57
2018-01-03T05:07:01.914Z,10.93
2018-01-03T05:09:27.681Z,10.10
2018-01-03T05:11:53.426Z,11.30
2018-01-03T05:14:19.173Z,4.77
2018-01-03T05:16:44.922Z,6.63
2018-01-03T05:19:10.678Z,6.07
2018-01-03T05:21:36.446Z,7.70
2018-01-03T05:24:02.210Z,7.20
2018-01-03T05:26:27.990Z,5.83
2018-01-03T05:28:53.754Z,6.20
2018-01-03T05:31:19.527Z,4.10
2018-01-03T05:33:45.561Z,3.53
2018-01-03T05:36:11.330Z,4.35
2018-01-03T05:38:37.074Z,4.00
2018-01-03T05:41:02.844Z,5.20
2018-01-03T05:43:28.601Z,3.53
2018-01-03T05:45:54.384Z,4.63
2018-01-03T05:48:20.129Z,4.50
2018-01-03T05:50:45.898Z,4.30
2018-01-03T05:53:11.654Z,3.23
2018-01-03T05:55:37.446Z,3.10
2018-01-03T05:58:03.190Z,4.23
2018-01-03T06:00:28.926Z,3.67
2018-01-03T06:02:54.683Z,3.13
2018-01-03T06:05:20.435Z,2.33
2018-01-03T06:07:46.202Z,5.10
2018-01-03T06:10:11.967Z,2.23
2018-01-03T06:12:37.745Z,6.90
2018-01-03T06:15:03.495Z,3.00
2018-01-03T06:17:29.246Z,2.93
2018-01-03T06:19:54.990Z,2.70
2018-01-03T06:22:20.749Z,4.23
2018-01-03T06:24:46.486Z,3.83
2018-01-03T06:27:12.254Z,2.40
2018-01-03T06:29:38.015Z,4.27
2018-01-03T06:32:03.770Z,2.90
2018-01-03T06:34:29.515Z,3.13
2018-01-03T06:36:55.279Z,4.33
2018-01-03T06:39:21.043Z,2.63
2018-01-03T06:41:46.794Z,3.10
2018-01-03T06:44:12.560Z,2.50
2018-01-03T06:46:38.326Z,3.77
2018-01-03T06:49:04.075Z,2.43
2018-01-03T06:51:29.835Z,1.63
2018-01-03T06:53:55.594Z,2.60
2018-01-03T06:56:21.347Z,1.50
2018-01-03T06:58:47.107Z,2.40
2018-01-03T07:01:12.875Z,2.43
2018-01-03T07:03:38.639Z,2.20
2018-01-03T07:06:04.395Z,2.07
2018-01-03T07:08:30.154Z,2.30
2018-01-03T07:10:55.922Z,2.20
2018-01-03T07:13:21.695Z,3.00
2018-01-03T07:15:47.442Z,2.57
2018-01-03T07:18:13.189Z,2.93
2018-01-03T07:20:39.718Z,3.42
2018-01-03T07:23:05.474Z,3.37
2018-01-03T07:25:31.235Z,4.97
2018-01-03T07:27:57.015Z,4.43
2018-01-03T07:30:22.775Z,8.03
2018-01-03T07:32:48.531Z,7.20
2018-01-03T07:35:14.302Z,7.97
2018-01-03T07:37:40.063Z,13.73
2018-01-03T07:40:05.875Z,5.33
2018-01-03T07:42:31.614Z,7.53
2018-01-03T07:44:57.377Z,4.43
2018-01-03T07:47:23.136Z,5.57
2018-01-03T07:49:48.911Z,6.13
2018-01-03T07:52:14.666Z,9.07
2018-01-03T07:54:40.435Z,9.47
2018-01-03T07:57:06.183Z,10.37
2018-01-03T07:59:31.956Z,12.37
2018-01-03T08:01:57.714Z,12.43
2018-01-03T08:04:23.475Z,13.33
2018-01-03T08:06:49.231Z,19.30
2018-01-03T08:09:14.991Z,17.07
2018-01-03T08:11:40.742Z,22.17
2018-01-03T08:14:06.507Z,20.50
2018-01-03T08:16:32.263Z,24.73
2018-01-03T08:18:57.999Z,27.40
2018-01-03T08:21:23.756Z,22.73
2018-01-03T08:23:49.493Z,19.77
2018-01-03T08:26:15.267Z,22.77
2018-01-03T08:28:41.030Z,19.90
2018-01-03T08:31:06.795Z,22.97
2018-01-03T08:33:32.554Z,26.53
2018-01-03T08:35:58.322Z,27.30
2018-01-03T08:38:24.075Z,24.17
2018-01-03T08:40:49.813Z,20.47
2018-01-03T08:43:15.566Z,23.43
2018-01-03T08:45:41.337Z,29.97
2018-01-03T08:48:07.086Z,35.33
2018-01-03T08:50:32.846Z,22.93
2018-01-03T08:52:58.621Z,25.40
2018-01-03T08:55:24.394Z,24.63
2018-01-03T08:57:50.145Z,35.23
2018-01-03T09:00:15.906Z,23.00
2018-01-03T09:02:41.658Z,21.03
2018-01-03T09:05:07.413Z,25.43
2018-01-03T09:07:33.159Z,27.90
2018-01-03T09:09:58.932Z,22.73
2018-01-03T09:12:24.694Z,21.53
2018-01-03T09:14:50.447Z,23.43
2018-01-03T09:17:16.195Z,22.23
2018-01-03T09:19:41.951Z,22.77
2018-01-03T09:22:07.731Z,19.27
2018-01-03T09:24:33.473Z,25.23
2018-01-03T09:26:59.233Z,26.47
2018-01-03T09:29:25.006Z,21.23
2018-01-03T09:31:50.770Z,16.73
2018-01-03T09:34:16.525Z,21.53
2018-01-03T09:36:42.299Z,22.13
2018-01-03T09:39:08.048Z,24.37
2018-01-03T09:41:33.810Z,18.63
2018-01-03T09:43:59.567Z,19.27
2018-01-03T09:46:25.336Z,29.50
2018-01-03T09:48:51.116Z,27.63
2018-01-03T09:51:16.908Z,24.87
2018-01-03T09:53:42.663Z,24.03
2018-01-03T09:56:08.421Z,23.27
2018-01-03T09:58:34.170Z,20.17
2018-01-03T10:00:59.927Z,22.90
2018-01-03T10:03:25.702Z,25.30
2018-01-03T10:05:51.458Z,27.17
2018-01-03T10:08:17.231Z,23.63
2018-01-03T10:10:42.983Z,22.63
2018-01-03T10:13:08.738Z,23.20
2018-01-03T10:15:34.490Z,17.80
2018-01-03T10:18:00.244Z,26.67
2018-01-03T10:20:25.997Z,21.57
2018-01-03T10:22:51.771Z,19.90
2018-01-03T10:25:17.534Z,20.40
2018-01-03T10:27:43.303Z,18.10
2018-01-03T10:30:09.054Z,19.83
2018-01-03T10:32:34.827Z,15.87
2018-01-03T10:35:00.578Z,21.67
2018-01-03T10:37:26.343Z,16.33
2018-01-03T10:39:52.102Z,16.20
2018-01-03T10:42:17.851Z,18.13
2018-01-03T10:44:43.610Z,22.30
2018-01-03T10:47:09.351Z,19.20
2018-01-03T10:49:35.124Z,13.50
2018-01-03T10:52:00.882Z,17.63
2018-01-03T10:54:26.651Z,16.20
2018-01-03T10:56:52.398Z,16.27
2018-01-03T10:59:18.146Z,18.57
2018-01-03T11:01:43.887Z,19.67
2018-01-03T11:04:09.650Z,18.83
2018-01-03T11:06:35.397Z,19.70
2018-01-03T11:09:01.150Z,18.30
2018-01-03T11:11:26.886Z,19.27
2018-01-03T11:13:52.619Z,18.70
2018-01-03T11:16:18.376Z,17.73
2018-01-03T11:18:44.120Z,23.60
2018-01-03T11:21:09.886Z,14.47
2018-01-03T11:23:35.630Z,17.17
2018-01-03T11:26:01.387Z,17.67
2018-01-03T11:28:27.122Z,18.73
2018-01-03T11:30:52.884Z,17.60
2018-01-03T11:33:18.626Z,21.37
2018-01-03T11:35:44.394Z,17.70
2018-01-03T11:38:10.217Z,15.63
2018-01-03T11:40:35.967Z,17.47
2018-01-03T11:43:01.707Z,19.90
2018-01-03T11:45:27.475Z,21.73
2018-01-03T11:47:53.234Z,16.77
2018-01-03T11:50:18.989Z,17.73
2018-01-03T11:52:44.721Z,19.10
2018-01-03T11:55:10.499Z,17.97
2018-01-03T11:57:36.322Z,12.50
2018-01-03T12:00:02.433Z,19.37
2018-01-03T12:02:28.314Z,14.50
2018-01-03T12:04:54.068Z,16.80
2018-01-03T12:07:19.894Z,14.00
2018-01-03T12:09:45.881Z,19.20
2018-01-03T12:12:11.670Z,15.55
2018-01-03T12:14:38.001Z,18.70
2018-01-03T12:17:03.962Z,14.73
2018-01-03T12:19:29.927Z,19.27
2018-01-03T12:21:56.042Z,15.80
2018-01-03T12:24:22.907Z,13.73
2018-01-03T12:26:48.895Z,12.27
2018-01-03T12:29:14.711Z,11.77
2018-01-03T12:31:40.494Z,10.33
2018-01-03T12:34:06.205Z,14.63
2018-01-03T12:36:31.956Z,11.80
2018-01-03T12:38:57.698Z,14.67
2018-01-03T12:41:23.434Z,10.63
2018-01-03T12:43:49.178Z,12.50
2018-01-03T12:46:14.933Z,9.90
2018-01-03T12:48:40.719Z,11.73
2018-01-03T12:51:06.478Z,10.67
2018-01-03T12:53:32.230Z,9.10
2018-01-03T12:55:57.997Z,11.00
2018-01-03T12:58:23.762Z,7.80
2018-01-03T13:00:49.510Z,10.53
2018-01-03T13:03:15.267Z,8.43
2018-01-03T13:05:40.998Z,10.47
2018-01-03T13:08:06.754Z,10.17
2018-01-03T13:10:32.494Z,10.17
2018-01-03T13:12:58.241Z,6.43
2018-01-03T13:15:23.997Z,8.37
2018-01-03T13:17:49.754Z,10.03
2018-01-03T13:20:15.507Z,9.90
2018-01-03T13:22:41.255Z,6.43
2018-01-03T13:25:07.003Z,6.93
2018-01-03T13:27:32.754Z,7.43
2018-01-03T13:29:58.499Z,4.50
2018-01-03T13:32:24.264Z,5.80
2018-01-03T13:34:50.015Z,6.47
2018-01-03T13:37:15.755Z,5.77
2018-01-03T13:39:41.502Z,6.07
2018-01-03T13:42:07.248Z,7.80
2018-01-03T13:44:33.010Z,6.17
2018-01-03T13:46:58.767Z,5.37
2018-01-03T13:49:24.529Z,7.20
2018-01-03T13:51:50.286Z,3.30
2018-01-03T13:54:16.048Z,4.73
2018-01-03T13:56:41.807Z,5.00
2018-01-03T13:59:07.567Z,8.47
2018-01-03T14:01:33.318Z,8.13
2018-01-03T14:03:59.066Z,6.20
2018-01-03T14:06:24.815Z,3.73
2018-01-03T14:08:50.574Z,6.47
2018-01-03T14:11:16.322Z,4.00
2018-01-03T14:13:42.062Z,4.67
2018-01-03T14:16:07.818Z,6.97
2018-01-03T14:18:33.574Z,3.77
2018-01-03T14:20:59.345Z,4.00
2018-01-03T14:23:25.119Z,5.33
2018-01-03T14:25:50.991Z,3.87
2018-01-03T14:28:16.855Z,6.43
2018-01-03T14:30:42.620Z,6.53
2018-01-03T14:33:08.758Z,5.70
2018-01-03T14:35:34.523Z,7.55
2018-01-03T14:38:00.283Z,8.00
2018-01-03T14:40:26.077Z,7.97
2018-01-03T14:42:51.811Z,6.27
2018-01-03T14:45:17.571Z,4.40
2018-01-03T14:47:43.322Z,3.70
2018-01-03T14:50:09.099Z,4.53
2018-01-03T14:52:34.847Z,8.37
2018-01-03T14:55:00.594Z,4.20
2018-01-03T14:57:26.350Z,4.90
2018-01-03T14:59:52.098Z,5.73
2018-01-03T15:02:17.850Z,9.90
2018-01-03T15:04:43.595Z,8.77
2018-01-03T15:07:09.342Z,10.47
2018-01-03T15:09:35.091Z,15.03
2018-01-03T15:12:00.840Z,15.23
2018-01-03T15:14:26.590Z,14.67
2018-01-03T15:16:52.361Z,15.43
2018-01-03T15:19:18.106Z,19.13
2018-01-03T15:21:43.863Z,15.73
2018-01-03T15:24:09.623Z,18.20
2018-01-03T15:26:35.395Z,21.07
2018-01-03T15:29:01.146Z,22.10
2018-01-03T15:31:26.903Z,14.20
2018-01-03T15:33:52.662Z,13.87
2018-01-03T15:36:18.419Z,10.13
2018-01-03T15:38:44.174Z,12.50
2018-01-03T15:41:09.938Z,7.40
2018-01-03T15:43:35.713Z,15.53
2018-01-03T15:46:01.459Z,16.30
2018-01-03T15:48:27.206Z,16.67
2018-01-03T15:50:52.962Z,12.40
2018-01-03T15:53:18.720Z,14.33
2018-01-03T15:55:44.466Z,20.57
2018-01-03T15:58:10.234Z,13.53
2018-01-03T16:00:35.990Z,15.30
2018-01-03T16:03:01.754Z,17.33
2018-01-03T16:05:27.506Z,15.20
2018-01-03T16:07:53.275Z,19.80
2018-01-03T16:10:19.034Z,10.00
2018-01-03T16:12:44.793Z,17.90
2018-01-03T16:15:10.549Z,10.87
2018-01-03T16:17:36.371Z,11.77
2018-01-03T16:20:02.163Z,13.20
2018-01-03T16:22:27.940Z,17.73
2018-01-03T16:24:53.695Z,11.73
2018-01-03T16:27:19.447Z,12.27
2018-01-03T16:29:45.193Z,12.53
2018-01-03T16:32:11.010Z,9.27
2018-01-03T16:34:36.787Z,17.30
2018-01-03T16:37:02.540Z,8.13
2018-01-03T16:39:28.352Z,17.57
2018-01-03T16:41:54.158Z,17.53
2018-01-03T16:44:19.970Z,15.00
2018-01-03T16:46:45.716Z,19.50
2018-01-03T16:49:11.476Z,20.40
2018-01-03T16:51:43.466Z,18.53
2018-01-03T16:54:09.226Z,20.92
2018-01-03T16:56:34.982Z,23.70
2018-01-03T16:59:00.742Z,15.57
2018-01-03T17:01:26.513Z,18.57
2018-01-03T17:03:52.286Z,23.47
2018-01-03T17:06:18.032Z,21.23
2018-01-03T17:08:43.905Z,18.60
2018-01-03T17:11:09.729Z,23.27
2018-01-03T17:13:35.503Z,19.97
2018-01-03T17:16:01.317Z,24.17
2018-01-03T17:18:27.062Z,24.63
2018-01-03T17:20:52.818Z,24.50
2018-01-03T17:23:18.562Z,19.30
2018-01-03T17:25:44.344Z,17.40
2018-01-03T17:28:10.094Z,24.83
2018-01-03T17:30:35.859Z,25.50
2018-01-03T17:33:01.603Z,23.27
2018-01-03T17:35:27.357Z,24.60
2018-01-03T17:37:53.120Z,15.67
2018-01-03T17:40:18.887Z,17.77
2018-01-03T17:42:44.652Z,24.23
2018-01-03T17:45:10.418Z,21.13
2018-01-03T17:47:36.171Z,22.67
2018-01-03T17:50:01.937Z,22.03
2018-01-03T17:52:27.691Z,21.53
2018-01-03T17:54:53.464Z,16.23
2018-01-03T17:57:19.215Z,16.60
2018-01-03T17:59:44.994Z,14.37
2018-01-03T18:02:11.054Z,15.67
2018-01-03T18:04:36.798Z,17.02
2018-01-03T18:07:02.555Z,19.97
2018-01-03T18:09:28.316Z,28.03
2018-01-03T18:11:54.074Z,22.90
2018-01-03T18:14:19.821Z,22.37
2018-01-03T18:16:45.570Z,18.93
2018-01-03T18:19:11.319Z,24.37
2018-01-03T18:21:37.073Z,21.03
2018-01-03T18:24:02.835Z,23.77
2018-01-03T18:26:28.602Z,23.30
2018-01-03T18:28:54.350Z,19.43
2018-01-03T18:31:20.103Z,19.73
2018-01-03T18:33:45.862Z,20.17
2018-01-03T18:36:11.635Z,29.40
2018-01-03T18:38:37.378Z,24.23
2018-01-03T18:41:03.131Z,20.37
2018-01-03T18:43:28.888Z,17.97
2018-01-03T18:45:54.674Z,22.70
2018-01-03T18:48:20.424Z,17.73
2018-01-03T18:50:46.178Z,21.93
2018-01-03T18:53:11.946Z,23.37
2018-01-03T18:55:37.695Z,19.07
2018-01-03T18:58:03.443Z,20.67
2018-01-03T19:00:29.178Z,20.43
2018-01-03T19:02:54.938Z,25.77
2018-01-03T19:05:20.691Z,20.40
2018-01-03T19:07:46.454Z,11.20
2018-01-03T19:10:12.210Z,13.87
2018-01-03T19:12:37.975Z,18.27
2018-01-03T19:15:03.726Z,14.07
2018-01-03T19:17:29.495Z,13.53
2018-01-03T19:19:55.265Z,13.37
2018-01-03T19:22:21.034Z,9.73
2018-01-03T19:24:46.786Z,11.67
2018-01-03T19:27:12.554Z,9.47
2018-01-03T19:29:38.306Z,7.33
2018-01-03T19:32:04.063Z,8.10
2018-01-03T19:34:29.824Z,8.47
2018-01-03T19:36:55.601Z,4.33
2018-01-03T19:39:21.421Z,5.37
2018-01-03T19:41:47.155Z,3.87
2018-01-03T19:44:12.942Z,5.20
2018-01-03T19:46:38.690Z,8.27
2018-01-03T19:49:04.449Z,4.60
2018-01-03T19:51:30.211Z,2.07
2018-01-03T19:53:56.008Z,3.30
2018-01-03T19:56:21.752Z,7.33
2018-01-03T19:58:47.524Z,5.10
2018-01-03T20:01:13.276Z,3.33
2018-01-03T20:03:39.026Z,3.53
2018-01-03T20:06:04.837Z,5.33
2018-01-03T20:08:30.608Z,4.67
2018-01-03T20:10:56.377Z,3.53
2018-01-03T20:13:22.139Z,8.87
2018-01-03T20:15:47.905Z,5.17
2018-01-03T20:18:13.667Z,3.60
2018-01-03T20:20:39.413Z,6.97
2018-01-03T20:23:05.150Z,3.63
2018-01-03T20:25:30.906Z,5.70
2018-01-03T20:27:56.665Z,7.30
2018-01-03T20:30:22.439Z,5.47
2018-01-03T20:32:48.191Z,6.20
2018-01-03T20:35:13.957Z,6.10
2018-01-03T20:37:39.709Z,6.97
2018-01-03T20:40:05.474Z,6.23
2018-01-03T20:42:31.234Z,7.37
2018-01-03T20:44:57.002Z,10.97
2018-01-03T20:47:22.742Z,7.87
2018-01-03T20:49:48.518Z,9.27
2018-01-03T20:52:14.266Z,12.43
2018-01-03T20:54:40.040Z,9.97
2018-01-03T20:57:05.958Z,11.17
2018-01-03T20:59:31.746Z,12.03
2018-01-03T21:01:57.478Z,15.73
2018-01-03T21:04:23.250Z,20.73
2018-01-03T21:06:49.455Z,14.47
2018-01-03T21:09:15.219Z,14.05
2018-01-03T21:11:41.030Z,14.90
2018-01-03T21:14:06.818Z,18.10
2018-01-03T21:16:32.624Z,21.90
2018-01-03T21:18:58.344Z,13.00
2018-01-03T21:21:24.352Z,23.73
2018-01-03T21:23:50.117Z,18.48
2018-01-03T21:26:15.870Z,15.93
2018-01-03T21:28:41.713Z,13.67
2018-01-03T21:31:07.499Z,13.50
2018-01-03T21:33:33.238Z,21.77
2018-01-03T21:35:58.993Z,17.70
2018-01-03T21:38:24.744Z,22.70
2018-01-03T21:40:50.507Z,20.40
2018-01-03T21:43:16.270Z,13.77
2018-01-03T21:45:42.143Z,18.43
2018-01-03T21:48:09.042Z,21.63
2018-01-03T21:50:34.817Z,17.37
2018-01-03T21:53:00.579Z,17.43
2018-01-03T21:55:26.448Z,19.63
2018-01-03T21:57:52.255Z,17.53
2018-01-03T22:00:18.054Z,22.50
2018-01-03T22:02:43.810Z,12.90
2018-01-03T22:05:09.546Z,15.33
2018-01-03T22:07:35.301Z,14.50
2018-01-03T22:10:01.144Z,19.47
2018-01-03T22:12:27.033Z,16.23
2018-01-03T22:14:52.805Z,13.50
2018-01-03T22:17:19.580Z,14.40
2018-01-03T22:19:45.331Z,12.55
2018-01-03T22:22:11.103Z,14.43
2018-01-03T22:24:36.888Z,14.03
2018-01-03T22:27:02.654Z,14.20
2018-01-03T22:29:28.410Z,15.80
2018-01-03T22:31:54.169Z,15.53
2018-01-03T22:34:19.926Z,9.63
2018-01-03T22:36:45.694Z,12.40
2018-01-03T22:39:11.491Z,13.87
2018-01-03T22:41:38.554Z,9.37
2018-01-03T22:44:04.326Z,15.75
2018-01-03T22:46:30.086Z,17.37
2018-01-03T22:48:56.094Z,15.53
2018-01-03T22:51:21.898Z,9.55
2018-01-03T22:53:47.738Z,14.33
2018-01-03T22:56:13.512Z,14.03
2018-01-03T22:58:39.271Z,10.20
2018-01-03T23:01:05.032Z,10.10
2018-01-03T23:03:30.803Z,9.33
2018-01-03T23:05:56.564Z,13.00
2018-01-03T23:08:22.648Z,13.10
2018-01-03T23:10:48.383Z,14.35
2018-01-03T23:13:14.143Z,10.50
2018-01-03T23:15:39.956Z,10.03
2018-01-03T23:18:05.747Z,12.03
2018-01-03T23:20:31.776Z,12.97
2018-01-03T23:22:57.534Z,9.13
2018-01-03T23:25:23.287Z,11.67
2018-01-03T23:27:49.335Z,17.83
2018-01-03T23:30:15.077Z,9.23
2018-01-03T23:32:40.856Z,9.60
2018-01-03T23:35:06.610Z,7.77
2018-01-03T23:37:32.366Z,6.70
2018-01-03T23:39:58.130Z,11.97
2018-01-03T23:42:23.896Z,7.63
2018-01-03T23:44:49.670Z,10.03
2018-01-03T23:47:15.417Z,7.33
2018-01-03T23:49:41.183Z,8.73
2018-01-03T23:52:06.947Z,6.73
2018-01-03T23:54:32.711Z,8.83
2018-01-03T23:56:58.482Z,7.63
2018-01-03T23:59:24.243Z,10.13
